Time;durP1;ratioP1;P1;durP2;ratioP2;P2;SDS_P1;SDS_P2;PMS_P1;PMS_P2;Temp;Humidity;BMP_temperature;BMP_pressure;BME280_temperature;BME280_humidity;BME280_pressure;Samples;Min_cycle;Max_cycle;Signal;HPM_P1;HPM_P2
2022/07/27 12:47:00;;;;;;;;;;;24.30;46.20;;;;;;491044;242;1429;-73
2022/07/27 12:48:59;;;;;;;;;;;24.30;46.10;;;;;;490985;240;2096;-73
2022/07/27 12:51:00;;;;;;;;;;;24.30;46.00;;;;;;491027;240;1181;-73
2022/07/27 12:53:01;;;;;;;;;;;24.30;46.00;;;;;;490941;240;1067;-73
2022/07/27 12:55:03;;;;;;;;;;;24.30;46.20;;;;;;491012;240;2168;-74
2022/07/27 12:57:04;;;;;;;;;;;24.20;46.20;;;;;;491066;240;1222;-74
2022/07/27 12:59:05;;;;;;;;;;;24.30;46.10;;;;;;491034;240;1117;-74
2022/07/27 13:01:07;;;;;;;;;;;24.40;45.90;;;;;;491012;240;1100;-73
2022/07/27 13:03:08;;;;;;;;;;;24.50;45.80;;;;;;490998;240;1197;-74
2022/07/27 13:05:09;;;;;;;;;;;24.40;45.80;;;;;;490922;240;1247;-74
2022/07/27 13:07:11;;;;;;;;;;;24.50;45.80;;;;;;490934;240;1196;-74
2022/07/27 13:09:12;;;;;;;;;;;24.30;45.90;;;;;;490917;240;1141;-74
2022/07/27 13:11:13;;;;;;;;;;;24.30;46.00;;;;;;490994;240;1206;-74
2022/07/27 13:13:15;;;;;;;;;;;24.30;46.00;;;;;;490983;240;1060;-73
2022/07/27 13:15:16;;;;;;;;;;;24.30;46.00;;;;;;490963;240;2227;-74
2022/07/27 13:17:17;;;;;;;;;;;24.20;46.00;;;;;;491054;240;1255;-74
2022/07/27 13:19:19;;;;;;;;;;;24.20;46.10;;;;;;491059;240;1217;-74
2022/07/27 13:21:20;;;;;;;;;;;24.20;46.10;;;;;;490966;240;1234;-74
2022/07/27 13:23:21;;;;;;;;;;;24.20;46.30;;;;;;491031;240;1221;-74
2022/07/27 13:25:23;;;;;;;;;;;24.20;46.20;;;;;;490960;240;1309;-74
2022/07/27 13:27:24;;;;;;;;;;;24.30;46.10;;;;;;490972;240;1328;-74
2022/07/27 13:29:26;;;;;;;;;;;24.20;46.10;;;;;;490984;240;1155;-74
2022/07/27 13:31:27;;;;;;;;;;;24.10;46.20;;;;;;491003;240;1344;-74
2022/07/27 13:33:28;;;;;;;;;;;24.10;46.40;;;;;;491079;240;1228;-74
2022/07/27 13:35:30;;;;;;;;;;;24.10;46.20;;;;;;491106;240;2184;-74
2022/07/27 13:37:31;;;;;;;;;;;24.20;46.20;;;;;;491054;240;1127;-74
2022/07/27 13:39:32;;;;;;;;;;;24.30;46.10;;;;;;491082;240;1110;-74
2022/07/27 13:41:34;;;;;;;;;;;24.30;46.00;;;;;;491000;240;1359;-74
2022/07/27 13:43:35;;;;;;;;;;;24.30;45.90;;;;;;490956;240;973;-74
2022/07/27 13:45:37;;;;;;;;;;;24.20;46.00;;;;;;490899;240;1102;-74
2022/07/27 13:47:38;;;;;;;;;;;24.30;46.00;;;;;;490863;240;1060;-74
2022/07/27 13:49:39;;;;;;;;;;;24.20;46.10;;;;;;490978;240;1201;-74
2022/07/27 13:51:41;;;;;;;;;;;24.20;46.20;;;;;;490994;240;1014;-73
2022/07/27 13:53:42;;;;;;;;;;;24.20;46.10;;;;;;491127;240;992;-73
2022/07/27 13:55:44;;;;;;;;;;;24.20;46.00;;;;;;491101;240;2116;-74
2022/07/27 13:57:45;;;;;;;;;;;24.30;45.90;;;;;;491126;240;980;-74
2022/07/27 13:59:46;;;;;;;;;;;24.40;45.80;;;;;;491128;240;1301;-74
2022/07/27 14:01:51;;;;;;;;;;;24.40;45.70;;;;;;491086;240;985;-74
2022/07/27 14:03:50;;;;;;;;;;;24.30;45.80;;;;;;491128;240;2233;-74
2022/07/27 14:05:52;;;;;;;;;;;24.20;45.90;;;;;;491066;240;1046;-74
2022/07/27 14:07:53;;;;;;;;;;;24.20;46.00;;;;;;491145;240;1106;-74
2022/07/27 14:12:14;;;;;;;;;;;24.20;46.10;;;;;;491020;242;1307;-74
2022/07/27 14:14:16;;;;;;;;;;;24.20;46.00;;;;;;491032;240;1104;-74
2022/07/27 14:16:17;;;;;;;;;;;24.30;45.90;;;;;;491024;240;2278;-74
2022/07/27 14:18:18;;;;;;;;;;;24.30;45.90;;;;;;491020;240;1014;-74
2022/07/27 14:20:20;;;;;;;;;;;24.30;45.80;;;;;;491080;240;1181;-74
2022/07/27 14:22:21;;;;;;;;;;;24.40;45.70;;;;;;491224;240;1197;-74
2022/07/27 14:24:22;;;;;;;;;;;24.40;45.70;;;;;;491198;240;1126;-73
2022/07/27 14:26:24;;;;;;;;;;;24.30;45.90;;;;;;491121;240;1097;-74
2022/07/27 14:28:25;;;;;;;;;;;24.30;45.80;;;;;;491054;240;1146;-74
2022/07/27 14:30:26;;;;;;;;;;;24.30;45.70;;;;;;491059;240;1208;-74
2022/07/27 14:32:28;;;;;;;;;;;24.30;45.80;;;;;;491033;240;1433;-74
2022/07/27 14:34:29;;;;;;;;;;;24.30;45.70;;;;;;490954;240;1267;-74
2022/07/27 14:36:30;;;;;;;;;;;24.30;45.90;;;;;;490930;240;2180;-74
2022/07/27 14:38:31;;;;;;;;;;;24.20;46.00;;;;;;491031;240;1137;-74
2022/07/27 14:40:33;;;;;;;;;;;24.30;46.00;;;;;;490897;240;1348;-73
2022/07/27 14:42:34;;;;;;;;;;;24.30;46.00;;;;;;491124;240;1693;-73
2022/07/27 14:44:36;;;;;;;;;;;24.30;45.90;;;;;;491020;240;1157;-74
2022/07/27 14:46:37;;;;;;;;;;;24.20;45.90;;;;;;491085;240;1215;-74
2022/07/27 14:48:38;;;;;;;;;;;24.20;46.00;;;;;;490938;240;1096;-74
2022/07/27 14:50:40;;;;;;;;;;;24.10;46.20;;;;;;490951;240;1210;-74
2022/07/27 14:52:41;;;;;;;;;;;24.00;46.50;;;;;;490929;240;1199;-74
2022/07/27 14:54:42;;;;;;;;;;;23.90;46.60;;;;;;490979;240;1125;-74
2022/07/27 14:56:44;;;;;;;;;;;23.90;46.70;;;;;;490968;240;2184;-74
2022/07/27 14:58:45;;;;;;;;;;;23.90;46.70;;;;;;491055;240;1158;-74
2022/07/27 15:00:47;;;;;;;;;;;23.80;46.80;;;;;;490971;240;1135;-74
2022/07/27 15:02:48;;;;;;;;;;;23.70;47.10;;;;;;490879;240;1110;-74
2022/07/27 15:04:49;;;;;;;;;;;23.60;47.20;;;;;;491013;240;2058;-74
2022/07/27 15:06:51;;;;;;;;;;;23.60;47.30;;;;;;490911;240;1182;-74
2022/07/27 15:08:52;;;;;;;;;;;23.60;47.20;;;;;;490948;240;1079;-74
2022/07/27 15:10:53;;;;;;;;;;;23.60;47.30;;;;;;490846;240;1154;-74
2022/07/27 15:12:55;;;;;;;;;;;23.60;47.20;;;;;;491070;240;1209;-74
2022/07/27 15:14:56;;;;;;;;;;;23.70;47.00;;;;;;491101;240;2183;-74
2022/07/27 15:16:58;;;;;;;;;;;23.70;46.90;;;;;;491065;240;1236;-74
2022/07/27 15:18:59;;;;;;;;;;;23.70;47.00;;;;;;490950;240;1186;-74
2022/07/27 15:21:00;;;;;;;;;;;23.70;46.80;;;;;;490951;240;1240;-73
2022/07/27 15:23:02;;;;;;;;;;;23.80;46.90;;;;;;491166;242;1167;-74
2022/07/27 15:25:03;;;;;;;;;;;23.90;46.70;;;;;;491156;240;2292;-74
2022/07/27 15:27:04;;;;;;;;;;;23.90;46.60;;;;;;491066;240;1201;-74
2022/07/27 15:29:08;;;;;;;;;;;23.70;46.70;;;;;;491019;240;1248;-74
2022/07/27 15:31:07;;;;;;;;;;;23.70;46.80;;;;;;490924;240;2151;-74
2022/07/27 15:33:08;;;;;;;;;;;23.70;46.90;;;;;;491136;240;1072;-74
2022/07/27 15:35:10;;;;;;;;;;;23.70;46.80;;;;;;491006;240;2392;-74
2022/07/27 15:37:11;;;;;;;;;;;23.70;46.90;;;;;;491074;240;1073;-74
2022/07/27 15:39:13;;;;;;;;;;;23.70;46.90;;;;;;491158;240;1292;-74
2022/07/27 15:41:14;;;;;;;;;;;23.60;46.90;;;;;;491027;240;1126;-74
2022/07/27 15:43:15;;;;;;;;;;;23.60;46.90;;;;;;491069;240;1101;-74
2022/07/27 15:45:16;;;;;;;;;;;23.60;47.10;;;;;;491071;240;1078;-74
2022/07/27 15:47:18;;;;;;;;;;;23.50;46.90;;;;;;491059;240;1170;-74
2022/07/27 15:49:19;;;;;;;;;;;23.60;47.00;;;;;;491124;240;1150;-74
2022/07/27 15:51:20;;;;;;;;;;;23.60;47.00;;;;;;491165;240;1206;-74
2022/07/27 15:53:22;;;;;;;;;;;23.60;47.00;;;;;;491072;240;1094;-74
2022/07/27 15:55:23;;;;;;;;;;;23.60;47.00;;;;;;491069;240;2116;-74
2022/07/27 15:57:25;;;;;;;;;;;23.50;46.90;;;;;;491273;240;1146;-74
2022/07/27 15:59:26;;;;;;;;;;;23.50;47.00;;;;;;491277;240;1242;-74
2022/07/27 16:01:27;;;;;;;;;;;23.60;46.80;;;;;;491330;240;1191;-74
2022/07/27 16:03:29;;;;;;;;;;;23.60;46.70;;;;;;491306;240;1199;-74
2022/07/27 16:05:30;;;;;;;;;;;23.60;46.80;;;;;;491254;240;1215;-74
2022/07/27 16:07:31;;;;;;;;;;;23.60;46.60;;;;;;491328;240;1107;-74
2022/07/27 16:09:33;;;;;;;;;;;23.60;46.60;;;;;;491276;240;1163;-74
2022/07/27 16:11:34;;;;;;;;;;;23.50;46.80;;;;;;491315;240;1133;-74
2022/07/27 16:13:35;;;;;;;;;;;23.50;46.80;;;;;;491206;240;967;-74
2022/07/27 16:17:56;;;;;;;;;;;23.50;46.90;;;;;;491395;242;1182;-74
2022/07/27 16:19:57;;;;;;;;;;;23.50;46.90;;;;;;491421;240;1310;-74
2022/07/27 16:21:58;;;;;;;;;;;23.50;47.00;;;;;;491398;240;1078;-74
2022/07/27 16:24:00;;;;;;;;;;;23.40;47.00;;;;;;491371;240;1018;-74
2022/07/27 16:26:01;;;;;;;;;;;23.40;47.00;;;;;;491294;240;987;-73
2022/07/27 16:28:02;;;;;;;;;;;23.50;47.00;;;;;;491356;240;1069;-73
2022/07/27 16:30:04;;;;;;;;;;;23.40;46.90;;;;;;491250;240;1202;-73
2022/07/27 16:32:05;;;;;;;;;;;23.50;46.80;;;;;;491307;240;1066;-74
2022/07/27 16:34:06;;;;;;;;;;;23.50;46.90;;;;;;491317;240;1077;-74
2022/07/27 16:36:08;;;;;;;;;;;23.50;46.80;;;;;;491231;240;2203;-74
2022/07/27 16:38:09;;;;;;;;;;;23.50;46.80;;;;;;491392;240;1239;-74
2022/07/27 16:40:10;;;;;;;;;;;23.70;46.60;;;;;;491378;240;1134;-74
2022/07/27 16:42:12;;;;;;;;;;;23.90;46.10;;;;;;491388;240;1125;-74
2022/07/27 16:44:13;;;;;;;;;;;24.10;45.70;;;;;;491402;240;1116;-74
2022/07/27 16:46:14;;;;;;;;;;;24.10;45.50;;;;;;491327;240;1244;-74
2022/07/27 16:48:17;;;;;;;;;;;24.10;45.40;;;;;;491426;240;1129;-74
2022/07/27 16:50:18;;;;;;;;;;;24.10;45.30;;;;;;491398;240;2300;-74
2022/07/27 16:52:19;;;;;;;;;;;24.10;45.40;;;;;;491410;240;1156;-74
2022/07/27 16:54:20;;;;;;;;;;;24.10;45.20;;;;;;491418;240;1097;-74
2022/07/27 16:56:21;;;;;;;;;;;24.10;45.20;;;;;;491412;240;2125;-74
2022/07/27 16:58:24;;;;;;;;;;;24.20;45.10;;;;;;491330;240;1419;-74
2022/07/27 17:00:25;;;;;;;;;;;24.20;45.10;;;;;;491427;240;2077;-74
2022/07/27 17:02:29;;;;;;;;;;;24.20;45.00;;;;;;491441;240;1217;-74
2022/07/27 17:04:28;;;;;;;;;;;24.10;45.10;;;;;;491444;240;2260;-74
2022/07/27 17:06:30;;;;;;;;;;;24.20;45.00;;;;;;491422;240;1616;-74
2022/07/27 17:08:31;;;;;;;;;;;24.20;44.80;;;;;;491316;240;2270;-74
2022/07/27 17:10:32;;;;;;;;;;;24.30;44.80;;;;;;491346;240;1156;-74
2022/07/27 17:12:33;;;;;;;;;;;24.30;44.70;;;;;;491413;240;1201;-74
2022/07/27 17:14:35;;;;;;;;;;;24.30;44.60;;;;;;491483;240;1136;-74
2022/07/27 17:16:36;;;;;;;;;;;24.40;44.50;;;;;;491503;240;2188;-74
2022/07/27 17:18:37;;;;;;;;;;;24.40;44.50;;;;;;491426;240;1143;-74
2022/07/27 17:20:39;;;;;;;;;;;24.30;44.40;;;;;;491372;240;1248;-74
2022/07/27 17:22:41;;;;;;;;;;;24.30;44.50;;;;;;491423;240;1229;-74
2022/07/27 17:24:42;;;;;;;;;;;24.20;44.60;;;;;;491459;240;1055;-74
2022/07/27 17:26:43;;;;;;;;;;;24.20;44.60;;;;;;491461;240;1174;-74
2022/07/27 17:28:45;;;;;;;;;;;24.20;44.70;;;;;;491533;240;1107;-73
2022/07/27 17:30:46;;;;;;;;;;;24.30;44.60;;;;;;491561;240;1311;-73
2022/07/27 17:32:47;;;;;;;;;;;24.20;44.70;;;;;;491463;240;1164;-73
2022/07/27 17:34:49;;;;;;;;;;;24.30;44.50;;;;;;491454;240;1129;-73
2022/07/27 17:36:50;;;;;;;;;;;24.30;44.50;;;;;;491481;240;2112;-73
2022/07/27 17:38:51;;;;;;;;;;;24.20;44.50;;;;;;491550;240;1125;-73
2022/07/27 17:40:52;;;;;;;;;;;24.20;44.60;;;;;;491535;240;1244;-73
2022/07/27 17:42:54;;;;;;;;;;;24.20;44.70;;;;;;491455;240;1215;-73
2022/07/27 17:44:55;;;;;;;;;;;24.20;44.50;;;;;;491522;240;1137;-74
2022/07/27 17:46:57;;;;;;;;;;;24.20;44.50;;;;;;491417;240;1094;-74
2022/07/27 17:48:58;;;;;;;;;;;24.30;44.50;;;;;;491586;240;1140;-74
2022/07/27 17:50:59;;;;;;;;;;;24.20;44.60;;;;;;491421;240;1133;-73
2022/07/27 17:53:00;;;;;;;;;;;24.20;44.50;;;;;;491458;240;1212;-74
2022/07/27 17:55:02;;;;;;;;;;;24.30;44.50;;;;;;491511;240;1181;-74
2022/07/27 17:57:03;;;;;;;;;;;24.20;44.40;;;;;;491510;240;2187;-74
2022/07/27 17:59:04;;;;;;;;;;;24.20;44.60;;;;;;491472;240;1154;-74
2022/07/27 18:01:07;;;;;;;;;;;24.20;44.50;;;;;;491459;240;1112;-74
2022/07/27 18:03:10;;;;;;;;;;;24.30;44.50;;;;;;491561;240;2352;-74
2022/07/27 18:05:09;;;;;;;;;;;24.30;44.40;;;;;;491515;240;2279;-74
2022/07/27 18:07:10;;;;;;;;;;;24.20;44.40;;;;;;491490;240;1223;-74
2022/07/27 18:09:12;;;;;;;;;;;24.20;44.50;;;;;;491509;240;1258;-74
2022/07/27 18:11:13;;;;;;;;;;;24.30;44.60;;;;;;491509;240;2265;-74
2022/07/27 18:13:14;;;;;;;;;;;24.30;44.50;;;;;;491529;240;1133;-74
2022/07/27 18:17:37;;;;;;;;;;;24.20;44.50;;;;;;491559;242;2117;-74
2022/07/27 18:19:37;;;;;;;;;;;24.20;44.50;;;;;;491577;240;2203;-74
2022/07/27 18:21:38;;;;;;;;;;;24.20;44.70;;;;;;491470;240;1345;-74
2022/07/27 18:23:39;;;;;;;;;;;24.20;44.60;;;;;;491471;240;1174;-74
2022/07/27 18:25:41;;;;;;;;;;;24.20;44.60;;;;;;491494;240;1130;-74
2022/07/27 18:27:43;;;;;;;;;;;24.20;44.60;;;;;;491460;240;1316;-74
2022/07/27 18:29:43;;;;;;;;;;;24.20;44.60;;;;;;491516;240;2209;-74
2022/07/27 18:31:45;;;;;;;;;;;24.30;44.60;;;;;;491534;240;1218;-74
2022/07/27 18:33:49;;;;;;;;;;;24.10;44.90;;;;;;491649;240;1139;-74
2022/07/27 18:35:47;;;;;;;;;;;24.20;45.00;;;;;;491624;240;2247;-74
2022/07/27 18:37:49;;;;;;;;;;;24.10;45.00;;;;;;491560;240;2180;-74
2022/07/27 18:39:50;;;;;;;;;;;24.10;45.00;;;;;;491607;240;1074;-74
2022/07/27 18:41:51;;;;;;;;;;;24.20;44.90;;;;;;491546;240;1130;-74
2022/07/27 18:43:53;;;;;;;;;;;24.20;44.80;;;;;;491525;240;1360;-74
2022/07/27 18:45:54;;;;;;;;;;;24.20;44.80;;;;;;491524;240;1223;-74
2022/07/27 18:47:55;;;;;;;;;;;24.20;44.80;;;;;;491528;240;1284;-74
2022/07/27 18:49:56;;;;;;;;;;;24.10;45.00;;;;;;491544;240;1233;-74
2022/07/27 18:51:58;;;;;;;;;;;24.10;45.00;;;;;;491486;240;1172;-74
2022/07/27 18:53:59;;;;;;;;;;;24.10;44.90;;;;;;491582;240;1135;-74
2022/07/27 18:56:01;;;;;;;;;;;24.20;44.90;;;;;;491588;240;1126;-74
2022/07/27 18:58:02;;;;;;;;;;;24.20;44.90;;;;;;491600;240;2183;-74
2022/07/27 19:00:03;;;;;;;;;;;24.00;45.10;;;;;;491659;240;1351;-74
2022/07/27 19:02:05;;;;;;;;;;;24.10;45.20;;;;;;491572;240;1176;-74
2022/07/27 19:04:06;;;;;;;;;;;24.20;45.00;;;;;;491613;240;1039;-74
2022/07/27 19:06:08;;;;;;;;;;;24.20;45.00;;;;;;491548;240;1118;-74
2022/07/27 19:08:10;;;;;;;;;;;24.30;44.90;;;;;;491580;240;1237;-74
2022/07/27 19:10:11;;;;;;;;;;;24.10;45.00;;;;;;491636;240;1168;-74
2022/07/27 19:12:12;;;;;;;;;;;24.20;45.20;;;;;;491591;240;1064;-74
2022/07/27 19:14:14;;;;;;;;;;;24.10;45.20;;;;;;491636;240;945;-74
2022/07/27 19:16:15;;;;;;;;;;;24.20;45.20;;;;;;491648;240;1225;-74
2022/07/27 19:18:17;;;;;;;;;;;24.10;45.20;;;;;;491652;240;2177;-74
2022/07/27 19:20:18;;;;;;;;;;;24.20;45.20;;;;;;491613;240;1112;-74
2022/07/27 19:22:19;;;;;;;;;;;24.20;45.20;;;;;;491502;240;1219;-74
2022/07/27 19:24:22;;;;;;;;;;;24.10;45.30;;;;;;491679;240;1078;-74
2022/07/27 19:26:22;;;;;;;;;;;24.20;45.30;;;;;;491657;240;2253;-74
2022/07/27 19:28:23;;;;;;;;;;;24.10;45.30;;;;;;491618;240;1171;-74
2022/07/27 19:30:25;;;;;;;;;;;24.10;45.60;;;;;;491593;240;1171;-74
2022/07/27 19:32:26;;;;;;;;;;;24.30;45.40;;;;;;491630;240;1130;-74
2022/07/27 19:34:27;;;;;;;;;;;24.20;45.40;;;;;;491664;240;1167;-74
2022/07/27 19:36:28;;;;;;;;;;;24.20;45.40;;;;;;491573;240;2117;-74
2022/07/27 19:38:30;;;;;;;;;;;24.10;45.50;;;;;;491621;240;1270;-74
2022/07/27 19:40:31;;;;;;;;;;;23.90;45.80;;;;;;491603;240;1190;-74
2022/07/27 19:42:33;;;;;;;;;;;23.90;46.00;;;;;;491558;240;1182;-74
2022/07/27 19:44:34;;;;;;;;;;;23.90;46.10;;;;;;491634;240;1122;-74
2022/07/27 19:46:35;;;;;;;;;;;24.00;46.10;;;;;;491633;240;1035;-74
2022/07/27 19:48:36;;;;;;;;;;;24.00;46.10;;;;;;491600;240;1220;-74
2022/07/27 19:50:38;;;;;;;;;;;24.00;45.90;;;;;;491619;240;1054;-74
2022/07/27 19:52:39;;;;;;;;;;;24.10;45.90;;;;;;491572;240;1177;-74
2022/07/27 19:54:41;;;;;;;;;;;24.10;45.80;;;;;;491707;240;1156;-73
2022/07/27 19:56:42;;;;;;;;;;;24.20;45.60;;;;;;491574;240;2137;-74
2022/07/27 19:58:43;;;;;;;;;;;24.30;45.60;;;;;;491636;240;1210;-74
2022/07/27 20:00:45;;;;;;;;;;;24.10;45.70;;;;;;491581;240;1165;-74
2022/07/27 20:02:47;;;;;;;;;;;24.10;45.80;;;;;;491642;240;1226;-74
2022/07/27 20:04:48;;;;;;;;;;;24.10;45.80;;;;;;491696;240;1185;-74
2022/07/27 20:06:49;;;;;;;;;;;24.10;45.80;;;;;;491595;240;1133;-73
2022/07/27 20:08:54;;;;;;;;;;;24.10;45.90;;;;;;491644;240;1224;-73
2022/07/27 20:10:52;;;;;;;;;;;24.10;45.80;;;;;;491709;240;2102;-73
2022/07/27 20:12:53;;;;;;;;;;;24.10;45.70;;;;;;491681;240;1186;-73
2022/07/27 20:14:54;;;;;;;;;;;24.00;45.90;;;;;;491726;240;1081;-73
2022/07/27 20:16:56;;;;;;;;;;;23.90;46.20;;;;;;491718;240;2128;-73
2022/07/27 20:18:58;;;;;;;;;;;24.00;46.20;;;;;;491620;240;1174;-74
2022/07/27 20:20:59;;;;;;;;;;;23.90;46.40;;;;;;491592;240;2139;-74
2022/07/27 20:23:00;;;;;;;;;;;23.90;46.40;;;;;;491614;240;1309;-74
2022/07/27 20:25:01;;;;;;;;;;;23.90;46.40;;;;;;491606;240;1021;-74
2022/07/27 20:27:03;;;;;;;;;;;23.90;46.40;;;;;;491676;240;1190;-74
2022/07/27 20:29:04;;;;;;;;;;;23.90;46.30;;;;;;491603;240;1002;-74
2022/07/27 20:31:05;;;;;;;;;;;24.00;46.30;;;;;;491572;240;1010;-74
2022/07/27 20:33:07;;;;;;;;;;;24.00;46.20;;;;;;491624;240;1075;-74
2022/07/27 20:35:08;;;;;;;;;;;24.00;46.10;;;;;;491658;240;958;-74
2022/07/27 20:37:09;;;;;;;;;;;24.10;46.00;;;;;;491658;240;2112;-74
2022/07/27 20:39:11;;;;;;;;;;;24.10;46.00;;;;;;491657;240;1203;-74
2022/07/27 20:41:12;;;;;;;;;;;24.10;45.90;;;;;;491678;240;1128;-74
2022/07/27 20:43:13;;;;;;;;;;;24.00;46.00;;;;;;491596;240;1063;-74
2022/07/27 20:45:15;;;;;;;;;;;24.00;46.10;;;;;;491558;240;1152;-74
2022/07/27 20:47:16;;;;;;;;;;;24.00;46.00;;;;;;491575;240;1092;-74
2022/07/27 20:49:17;;;;;;;;;;;24.10;46.00;;;;;;491715;240;1082;-74
2022/07/27 20:51:19;;;;;;;;;;;24.10;45.90;;;;;;491591;240;1287;-74
2022/07/27 20:53:20;;;;;;;;;;;24.10;46.00;;;;;;491648;239;1212;-74
2022/07/27 20:55:21;;;;;;;;;;;24.00;45.90;;;;;;491562;240;1089;-74
2022/07/27 20:57:23;;;;;;;;;;;24.00;46.00;;;;;;491641;240;2196;-74
2022/07/27 20:59:24;;;;;;;;;;;24.00;46.00;;;;;;491687;240;1198;-74
2022/07/27 21:01:25;;;;;;;;;;;24.10;45.80;;;;;;491648;240;1134;-74
2022/07/27 21:03:27;;;;;;;;;;;24.20;45.80;;;;;;491729;240;1245;-74
2022/07/27 21:05:28;;;;;;;;;;;24.10;45.80;;;;;;491740;240;1152;-74
2022/07/27 21:07:29;;;;;;;;;;;24.10;45.80;;;;;;491589;240;1133;-74
2022/07/27 21:09:31;;;;;;;;;;;24.10;45.90;;;;;;491550;240;1220;-74
2022/07/27 21:11:32;;;;;;;;;;;24.10;45.90;;;;;;491592;240;1266;-74
2022/07/27 21:13:33;;;;;;;;;;;24.10;45.70;;;;;;491641;240;1014;-74
2022/07/27 21:15:35;;;;;;;;;;;24.20;45.70;;;;;;491635;240;1075;-74
2022/07/27 21:17:36;;;;;;;;;;;24.20;45.70;;;;;;491726;240;2184;-74
2022/07/27 21:19:37;;;;;;;;;;;24.20;45.70;;;;;;491613;240;953;-74
2022/07/27 21:21:39;;;;;;;;;;;24.20;45.60;;;;;;491544;240;950;-74
2022/07/27 21:25:59;;;;;;;;;;;24.30;45.50;;;;;;491637;242;1162;-74
2022/07/27 21:28:00;;;;;;;;;;;24.30;45.50;;;;;;491622;240;1338;-73
2022/07/27 21:30:02;;;;;;;;;;;24.20;45.60;;;;;;491582;240;1122;-74
2022/07/27 21:32:03;;;;;;;;;;;24.20;45.60;;;;;;491610;240;1247;-74
2022/07/27 21:34:04;;;;;;;;;;;24.30;45.40;;;;;;491579;240;1133;-72
2022/07/27 21:36:06;;;;;;;;;;;24.30;45.40;;;;;;491526;240;1200;-72
2022/07/27 21:38:07;;;;;;;;;;;24.30;45.40;;;;;;491575;240;2125;-72
2022/07/27 21:40:08;;;;;;;;;;;24.30;45.40;;;;;;491671;240;1167;-72
2022/07/27 21:42:10;;;;;;;;;;;24.30;45.50;;;;;;491660;240;1244;-72
2022/07/27 21:44:11;;;;;;;;;;;24.20;45.60;;;;;;491626;240;1039;-72
2022/07/27 21:46:12;;;;;;;;;;;24.20;45.70;;;;;;491646;240;1159;-72
2022/07/27 21:48:14;;;;;;;;;;;24.10;45.70;;;;;;491654;240;1149;-72
2022/07/27 21:50:15;;;;;;;;;;;24.10;45.70;;;;;;491592;240;1216;-72
2022/07/27 21:52:16;;;;;;;;;;;24.10;45.70;;;;;;491638;240;1236;-72
2022/07/27 21:54:18;;;;;;;;;;;24.10;45.70;;;;;;491721;240;1206;-72
2022/07/27 21:56:19;;;;;;;;;;;24.10;45.70;;;;;;491623;240;1095;-72
2022/07/27 21:58:20;;;;;;;;;;;24.10;45.90;;;;;;491745;240;2208;-72
2022/07/27 22:00:22;;;;;;;;;;;24.10;45.90;;;;;;491676;240;918;-71
2022/07/27 22:02:24;;;;;;;;;;;24.00;46.00;;;;;;491632;240;955;-72
2022/07/27 22:04:25;;;;;;;;;;;24.00;46.00;;;;;;491646;240;1045;-72
2022/07/27 22:06:27;;;;;;;;;;;23.90;46.10;;;;;;491639;240;1280;-72
2022/07/27 22:08:28;;;;;;;;;;;23.90;46.20;;;;;;491603;240;944;-72
2022/07/27 22:10:29;;;;;;;;;;;24.00;46.30;;;;;;491661;240;1226;-72
2022/07/27 22:12:30;;;;;;;;;;;23.90;46.20;;;;;;491629;240;1215;-72
2022/07/27 22:14:32;;;;;;;;;;;23.90;46.20;;;;;;491660;240;1117;-72
2022/07/27 22:16:33;;;;;;;;;;;24.00;46.20;;;;;;491508;240;1423;-72
2022/07/27 22:18:34;;;;;;;;;;;24.00;46.20;;;;;;491613;240;2120;-72
2022/07/27 22:20:36;;;;;;;;;;;24.00;46.10;;;;;;491635;240;1150;-72
2022/07/27 22:22:37;;;;;;;;;;;24.00;46.10;;;;;;491622;240;1112;-72
2022/07/27 22:24:39;;;;;;;;;;;23.90;46.10;;;;;;491671;240;1201;-72
2022/07/27 22:26:40;;;;;;;;;;;23.90;46.10;;;;;;491639;240;2254;-71
2022/07/27 22:28:41;;;;;;;;;;;24.00;46.20;;;;;;491716;240;1183;-72
2022/07/27 22:30:42;;;;;;;;;;;24.00;46.20;;;;;;491706;240;1105;-72
2022/07/27 22:32:44;;;;;;;;;;;24.00;46.10;;;;;;491695;240;1107;-72
2022/07/27 22:34:45;;;;;;;;;;;23.90;46.20;;;;;;491691;240;1140;-71
2022/07/27 22:36:46;;;;;;;;;;;23.90;46.30;;;;;;491673;240;1169;-72
2022/07/27 22:38:48;;;;;;;;;;;24.00;46.00;;;;;;491647;240;2132;-72
2022/07/27 22:40:49;;;;;;;;;;;24.00;45.90;;;;;;491720;240;1208;-71
2022/07/27 22:42:50;;;;;;;;;;;24.00;46.00;;;;;;491645;240;1093;-72
2022/07/27 22:44:52;;;;;;;;;;;24.10;45.90;;;;;;491729;240;1105;-72
2022/07/27 22:46:53;;;;;;;;;;;24.10;46.00;;;;;;491607;240;1349;-72
2022/07/27 22:48:54;;;;;;;;;;;24.10;45.90;;;;;;491714;240;1104;-72
2022/07/27 22:50:56;;;;;;;;;;;24.10;45.80;;;;;;491616;240;956;-72
2022/07/27 22:52:57;;;;;;;;;;;24.00;45.80;;;;;;491611;240;1054;-72
2022/07/27 22:54:58;;;;;;;;;;;23.90;46.10;;;;;;491652;240;1183;-72
2022/07/27 22:57:00;;;;;;;;;;;23.90;46.10;;;;;;491714;240;1212;-72
2022/07/27 22:59:01;;;;;;;;;;;24.00;46.00;;;;;;491652;240;2112;-72
2022/07/27 23:01:02;;;;;;;;;;;24.10;45.80;;;;;;491658;240;1355;-72
2022/07/27 23:03:04;;;;;;;;;;;24.10;45.80;;;;;;491660;240;961;-72
2022/07/27 23:05:05;;;;;;;;;;;24.10;45.80;;;;;;491667;240;1038;-72
2022/07/27 23:07:06;;;;;;;;;;;24.10;45.80;;;;;;491690;240;1213;-72
2022/07/27 23:09:08;;;;;;;;;;;24.00;45.90;;;;;;491710;240;935;-72
2022/07/27 23:11:09;;;;;;;;;;;24.00;46.10;;;;;;491704;240;1234;-72
2022/07/27 23:13:11;;;;;;;;;;;24.00;46.00;;;;;;491677;240;1050;-72
2022/07/27 23:15:12;;;;;;;;;;;24.10;45.90;;;;;;491726;240;1195;-72
2022/07/27 23:17:13;;;;;;;;;;;24.00;45.80;;;;;;491779;240;1155;-72
2022/07/27 23:19:15;;;;;;;;;;;24.00;45.90;;;;;;491650;240;2180;-72
2022/07/27 23:21:16;;;;;;;;;;;23.90;45.90;;;;;;491717;240;1140;-71
2022/07/27 23:23:17;;;;;;;;;;;23.90;46.00;;;;;;491625;240;1205;-72
2022/07/27 23:25:19;;;;;;;;;;;24.00;46.00;;;;;;491652;240;1188;-72
2022/07/27 23:27:20;;;;;;;;;;;24.00;45.90;;;;;;491697;240;1201;-72
2022/07/27 23:29:21;;;;;;;;;;;24.00;45.70;;;;;;491663;240;1123;-71
2022/07/27 23:31:23;;;;;;;;;;;24.10;45.80;;;;;;491676;240;1136;-72
2022/07/27 23:33:24;;;;;;;;;;;24.10;45.80;;;;;;491662;240;1069;-72
2022/07/27 23:35:25;;;;;;;;;;;24.00;45.90;;;;;;491655;240;1068;-72
2022/07/27 23:37:27;;;;;;;;;;;24.00;46.00;;;;;;491716;240;1101;-72
2022/07/27 23:39:28;;;;;;;;;;;24.00;45.90;;;;;;491654;240;2179;-72
2022/07/27 23:41:30;;;;;;;;;;;24.00;45.90;;;;;;491713;240;1278;-71
2022/07/27 23:43:31;;;;;;;;;;;23.90;45.90;;;;;;491684;240;956;-72
2022/07/27 23:45:33;;;;;;;;;;;24.00;46.10;;;;;;491727;240;941;-72
2022/07/27 23:47:34;;;;;;;;;;;23.90;46.10;;;;;;491689;240;2205;-72
2022/07/27 23:49:35;;;;;;;;;;;23.90;46.10;;;;;;491677;240;990;-72
2022/07/27 23:51:36;;;;;;;;;;;23.80;46.10;;;;;;491618;240;1180;-72
2022/07/27 23:53:38;;;;;;;;;;;23.80;46.20;;;;;;491663;240;994;-72
2022/07/27 23:55:40;;;;;;;;;;;23.80;46.20;;;;;;491613;240;1229;-72
2022/07/27 23:57:40;;;;;;;;;;;23.80;46.20;;;;;;491727;240;2246;-72
2022/07/27 23:59:42;;;;;;;;;;;23.80;46.20;;;;;;491707;240;2179;-72
